ASA508 PACV-PAYA
Flight info
| Callsign | ASA508 |
|---|---|
| Flight time | 0h 35m |
| Altitude | 25000 |
| Route | FORAT MALAS V319 YAK |
| Aircraft | B737/M-SDE2E3FGHIRWXY/LB1 |
Departure
| Time | 2026-04-16 00:40 |
|---|---|
| Airport | Merle K (Mudhole) Smith Airport (PACV) |
Arrival
| Time | 2026-04-16 01:16 |
|---|---|
| Airport | Yakutat Airport (PAYA) |
| Time | Latitude | Longitude | Altitude | Speed | Heading |
|---|---|---|---|---|---|
| 2026-04-16 00:24 | 60.49416 | -145.47258 | 53 ft | 0 kts | 122° |
| 2026-04-16 00:36 | 60.49411 | -145.47265 | 47 ft | 2 kts | 216° |
| 2026-04-16 00:37 | 60.49397 | -145.47320 | 48 ft | 6 kts | 245° |
| 2026-04-16 00:37 | 60.49364 | -145.47431 | 50 ft | 11 kts | 217° |
| 2026-04-16 00:37 | 60.49285 | -145.47491 | 51 ft | 14 kts | 205° |
| 2026-04-16 00:37 | 60.49229 | -145.47641 | 47 ft | 16 kts | 288° |
| 2026-04-16 00:38 | 60.49278 | -145.47869 | 51 ft | 20 kts | 294° |
| 2026-04-16 00:38 | 60.49341 | -145.48151 | 49 ft | 24 kts | 294° |
| 2026-04-16 00:38 | 60.49416 | -145.48491 | 49 ft | 28 kts | 294° |
| 2026-04-16 00:38 | 60.49497 | -145.48869 | 51 ft | 29 kts | 293° |
| 2026-04-16 00:39 | 60.49577 | -145.49237 | 52 ft | 29 kts | 294° |
| 2026-04-16 00:39 | 60.49615 | -145.49564 | 54 ft | 15 kts | 265° |
| 2026-04-16 00:39 | 60.49649 | -145.49654 | 48 ft | 9 kts | 30° |
| 2026-04-16 00:39 | 60.49608 | -145.49389 | 56 ft | 49 kts | 114° |
| 2026-04-16 00:40 | 60.49363 | -145.48268 | 51 ft | 122 kts | 114° |
| 2026-04-16 00:40 | 60.48947 | -145.46391 | 222 ft | 159 kts | 115° |
| 2026-04-16 00:40 | 60.48448 | -145.44441 | 991 ft | 159 kts | 129° |
| 2026-04-16 00:40 | 60.47465 | -145.43492 | 1693 ft | 164 kts | 178° |
| 2026-04-16 00:41 | 60.46247 | -145.43506 | 2145 ft | 192 kts | 179° |
| 2026-04-16 00:41 | 60.44856 | -145.43216 | 2587 ft | 210 kts | 158° |
| 2026-04-16 00:41 | 60.43513 | -145.41735 | 3014 ft | 227 kts | 149° |
| 2026-04-16 00:41 | 60.42125 | -145.40117 | 3674 ft | 232 kts | 150° |
| 2026-04-16 00:42 | 60.40712 | -145.38495 | 4411 ft | 234 kts | 150° |
| 2026-04-16 00:42 | 60.39290 | -145.36871 | 5168 ft | 235 kts | 150° |
| 2026-04-16 00:42 | 60.37855 | -145.35237 | 5887 ft | 239 kts | 150° |
| 2026-04-16 00:42 | 60.36404 | -145.33586 | 6652 ft | 240 kts | 150° |
| 2026-04-16 00:43 | 60.34951 | -145.31874 | 7404 ft | 244 kts | 144° |
| 2026-04-16 00:43 | 60.33773 | -145.29405 | 8169 ft | 247 kts | 129° |
| 2026-04-16 00:43 | 60.32722 | -145.26634 | 8913 ft | 252 kts | 118° |
| 2026-04-16 00:43 | 60.32166 | -145.23253 | 9667 ft | 257 kts | 105° |
| 2026-04-16 00:44 | 60.31736 | -145.19599 | 10152 ft | 280 kts | 104° |
| 2026-04-16 00:44 | 60.31276 | -145.15562 | 10405 ft | 311 kts | 104° |
| 2026-04-16 00:44 | 60.30772 | -145.11167 | 10952 ft | 329 kts | 104° |
| 2026-04-16 00:44 | 60.30240 | -145.06617 | 11726 ft | 338 kts | 104° |
| 2026-04-16 00:45 | 60.29684 | -145.01952 | 12474 ft | 348 kts | 105° |
| 2026-04-16 00:45 | 60.29101 | -144.97140 | 13237 ft | 357 kts | 105° |
| 2026-04-16 00:45 | 60.28505 | -144.92257 | 14141 ft | 361 kts | 105° |
| 2026-04-16 00:45 | 60.27896 | -144.87306 | 15025 ft | 367 kts | 105° |
| 2026-04-16 00:46 | 60.27270 | -144.82249 | 15863 ft | 375 kts | 105° |
| 2026-04-16 00:46 | 60.26630 | -144.77115 | 16703 ft | 381 kts | 105° |
| 2026-04-16 00:46 | 60.25977 | -144.71900 | 17519 ft | 387 kts | 105° |
| 2026-04-16 00:46 | 60.25310 | -144.66597 | 18309 ft | 394 kts | 105° |
| 2026-04-16 00:47 | 60.24630 | -144.61205 | 19067 ft | 401 kts | 105° |
| 2026-04-16 00:47 | 60.23935 | -144.55715 | 19834 ft | 408 kts | 105° |
| 2026-04-16 00:47 | 60.23228 | -144.50145 | 20576 ft | 414 kts | 105° |
| 2026-04-16 00:47 | 60.22505 | -144.44482 | 21231 ft | 422 kts | 105° |
| 2026-04-16 00:48 | 60.21767 | -144.38714 | 21876 ft | 430 kts | 105° |
| 2026-04-16 00:48 | 60.21013 | -144.32844 | 22529 ft | 436 kts | 105° |
| 2026-04-16 00:48 | 60.20249 | -144.26906 | 23159 ft | 442 kts | 105° |
| 2026-04-16 00:48 | 60.19468 | -144.20871 | 23771 ft | 449 kts | 105° |
| 2026-04-16 00:49 | 60.18672 | -144.14750 | 24357 ft | 456 kts | 105° |
| 2026-04-16 00:50 | 60.16211 | -143.96045 | 24989 ft | 462 kts | 105° |
| 2026-04-16 00:51 | 60.15387 | -143.89830 | 24995 ft | 461 kts | 105° |
| 2026-04-16 00:51 | 60.14561 | -143.83619 | 25000 ft | 461 kts | 105° |
| 2026-04-16 00:51 | 60.13732 | -143.77404 | 24996 ft | 461 kts | 105° |
| 2026-04-16 00:51 | 60.12900 | -143.71195 | 24998 ft | 460 kts | 105° |
| 2026-04-16 00:52 | 60.12067 | -143.64997 | 24998 ft | 460 kts | 105° |
| 2026-04-16 00:52 | 60.11232 | -143.58815 | 24996 ft | 460 kts | 106° |
| 2026-04-16 00:52 | 60.10395 | -143.52637 | 24995 ft | 459 kts | 106° |
| 2026-04-16 00:52 | 60.09556 | -143.46470 | 24988 ft | 458 kts | 106° |
| 2026-04-16 00:53 | 60.08714 | -143.40305 | 24988 ft | 458 kts | 106° |
| 2026-04-16 00:53 | 60.07872 | -143.34167 | 24992 ft | 457 kts | 106° |
| 2026-04-16 00:53 | 60.07028 | -143.28046 | 24996 ft | 456 kts | 106° |
| 2026-04-16 00:53 | 60.06183 | -143.21932 | 24990 ft | 455 kts | 106° |
| 2026-04-16 00:54 | 60.05336 | -143.15828 | 24986 ft | 455 kts | 106° |
| 2026-04-16 00:54 | 60.04488 | -143.09739 | 24989 ft | 454 kts | 107° |
| 2026-04-16 00:54 | 60.03639 | -143.03661 | 24981 ft | 454 kts | 107° |
| 2026-04-16 00:54 | 60.02786 | -142.97589 | 24986 ft | 453 kts | 107° |
| 2026-04-16 00:55 | 60.01932 | -142.91530 | 24983 ft | 452 kts | 107° |
| 2026-04-16 00:55 | 60.01078 | -142.85493 | 24980 ft | 452 kts | 107° |
| 2026-04-16 00:55 | 60.00220 | -142.79449 | 24980 ft | 452 kts | 107° |
| 2026-04-16 00:55 | 59.99360 | -142.73410 | 24984 ft | 452 kts | 107° |
| 2026-04-16 00:56 | 59.98496 | -142.67369 | 24980 ft | 454 kts | 107° |
| 2026-04-16 00:56 | 59.97625 | -142.61299 | 24990 ft | 456 kts | 107° |
| 2026-04-16 00:56 | 59.96747 | -142.55207 | 24997 ft | 458 kts | 107° |
| 2026-04-16 00:56 | 59.95874 | -142.49168 | 24998 ft | 459 kts | 107° |
| 2026-04-16 00:57 | 59.94094 | -142.36930 | 24992 ft | 460 kts | 107° |
| 2026-04-16 00:57 | 59.93200 | -142.30817 | 24981 ft | 459 kts | 107° |
| 2026-04-16 00:57 | 59.92303 | -142.24707 | 24536 ft | 460 kts | 107° |
| 2026-04-16 00:58 | 59.91405 | -142.18608 | 24021 ft | 457 kts | 107° |
| 2026-04-16 00:58 | 59.90514 | -142.12578 | 23472 ft | 451 kts | 108° |
| 2026-04-16 00:58 | 59.89633 | -142.06630 | 22920 ft | 445 kts | 108° |
| 2026-04-16 00:58 | 59.88758 | -142.00753 | 22366 ft | 440 kts | 108° |
| 2026-04-16 00:59 | 59.87890 | -141.94945 | 21812 ft | 434 kts | 108° |
| 2026-04-16 00:59 | 59.87031 | -141.89217 | 21265 ft | 429 kts | 108° |
| 2026-04-16 00:59 | 59.86180 | -141.83559 | 20721 ft | 424 kts | 108° |
| 2026-04-16 00:59 | 59.85336 | -141.77965 | 20179 ft | 419 kts | 108° |
| 2026-04-16 01:00 | 59.84502 | -141.72458 | 19637 ft | 414 kts | 108° |
| 2026-04-16 01:00 | 59.83674 | -141.67009 | 19102 ft | 409 kts | 108° |
| 2026-04-16 01:00 | 59.82853 | -141.61625 | 18568 ft | 404 kts | 108° |
| 2026-04-16 01:00 | 59.82040 | -141.56308 | 18037 ft | 399 kts | 108° |
| 2026-04-16 01:01 | 59.81236 | -141.51064 | 17511 ft | 395 kts | 108° |
| 2026-04-16 01:01 | 59.80440 | -141.45884 | 16989 ft | 390 kts | 108° |
| 2026-04-16 01:01 | 59.79649 | -141.40760 | 16470 ft | 385 kts | 108° |
| 2026-04-16 01:01 | 59.78867 | -141.35708 | 15949 ft | 381 kts | 108° |
| 2026-04-16 01:02 | 59.78090 | -141.30704 | 15430 ft | 377 kts | 108° |
| 2026-04-16 01:02 | 59.77319 | -141.25761 | 14914 ft | 373 kts | 108° |
| 2026-04-16 01:02 | 59.76557 | -141.20878 | 14397 ft | 369 kts | 108° |
| 2026-04-16 01:02 | 59.75802 | -141.16054 | 13891 ft | 364 kts | 109° |
| 2026-04-16 01:03 | 59.75072 | -141.11389 | 13500 ft | 348 kts | 109° |
| 2026-04-16 01:03 | 59.74354 | -141.06828 | 12936 ft | 342 kts | 109° |
| 2026-04-16 01:03 | 59.73653 | -141.02391 | 12437 ft | 333 kts | 109° |
| 2026-04-16 01:03 | 59.72965 | -140.98047 | 11964 ft | 329 kts | 109° |
| 2026-04-16 01:04 | 59.72280 | -140.93734 | 11497 ft | 327 kts | 109° |
| 2026-04-16 01:04 | 59.71599 | -140.89452 | 11030 ft | 325 kts | 109° |
| 2026-04-16 01:04 | 59.70925 | -140.85206 | 10553 ft | 322 kts | 109° |
| 2026-04-16 01:04 | 59.70265 | -140.81069 | 10293 ft | 313 kts | 109° |
| 2026-04-16 01:05 | 59.69622 | -140.77054 | 10146 ft | 300 kts | 109° |
| 2026-04-16 01:05 | 59.69003 | -140.73201 | 10018 ft | 288 kts | 109° |
| 2026-04-16 01:05 | 59.68405 | -140.69484 | 9761 ft | 281 kts | 109° |
| 2026-04-16 01:05 | 59.67818 | -140.65834 | 9467 ft | 276 kts | 109° |
| 2026-04-16 01:06 | 59.67236 | -140.62231 | 9135 ft | 273 kts | 109° |
| 2026-04-16 01:06 | 59.66692 | -140.58670 | 8799 ft | 270 kts | 99° |
| 2026-04-16 01:06 | 59.66801 | -140.54997 | 8569 ft | 268 kts | 82° |
| 2026-04-16 01:06 | 59.67091 | -140.51330 | 8325 ft | 271 kts | 81° |
| 2026-04-16 01:07 | 59.67389 | -140.47621 | 8078 ft | 273 kts | 81° |
| 2026-04-16 01:07 | 59.67683 | -140.43940 | 7821 ft | 270 kts | 81° |
| 2026-04-16 01:07 | 59.67970 | -140.40295 | 7572 ft | 265 kts | 82° |
| 2026-04-16 01:07 | 59.68247 | -140.36716 | 7264 ft | 262 kts | 82° |
| 2026-04-16 01:08 | 59.68520 | -140.33159 | 6934 ft | 261 kts | 82° |
| 2026-04-16 01:08 | 59.68788 | -140.29625 | 6599 ft | 259 kts | 82° |
| 2026-04-16 01:08 | 59.69053 | -140.26108 | 6261 ft | 258 kts | 82° |
| 2026-04-16 01:08 | 59.69317 | -140.22609 | 5923 ft | 257 kts | 82° |
| 2026-04-16 01:09 | 59.69579 | -140.19118 | 5582 ft | 256 kts | 82° |
| 2026-04-16 01:09 | 59.69837 | -140.15637 | 5245 ft | 255 kts | 82° |
| 2026-04-16 01:09 | 59.70093 | -140.12176 | 4909 ft | 254 kts | 82° |
| 2026-04-16 01:09 | 59.70348 | -140.08718 | 4573 ft | 253 kts | 82° |
| 2026-04-16 01:10 | 59.70281 | -140.05293 | 4212 ft | 251 kts | 111° |
| 2026-04-16 01:10 | 59.69374 | -140.02400 | 3924 ft | 247 kts | 129° |
| 2026-04-16 01:10 | 59.68216 | -139.99905 | 3587 ft | 246 kts | 136° |
| 2026-04-16 01:10 | 59.66986 | -139.97562 | 3255 ft | 245 kts | 137° |
| 2026-04-16 01:11 | 59.65788 | -139.95234 | 3093 ft | 236 kts | 136° |
| 2026-04-16 01:11 | 59.64648 | -139.92995 | 2954 ft | 226 kts | 136° |
| 2026-04-16 01:11 | 59.63554 | -139.90845 | 2857 ft | 217 kts | 136° |
| 2026-04-16 01:11 | 59.62505 | -139.88783 | 2760 ft | 208 kts | 136° |
| 2026-04-16 01:12 | 59.61502 | -139.86814 | 2668 ft | 198 kts | 137° |
| 2026-04-16 01:12 | 59.60536 | -139.84920 | 2513 ft | 195 kts | 136° |
| 2026-04-16 01:12 | 59.59589 | -139.83058 | 2349 ft | 186 kts | 137° |
| 2026-04-16 01:12 | 59.58687 | -139.81287 | 2152 ft | 181 kts | 136° |
| 2026-04-16 01:13 | 59.57812 | -139.79565 | 1934 ft | 180 kts | 136° |
| 2026-04-16 01:13 | 59.56924 | -139.77821 | 1700 ft | 179 kts | 136° |
| 2026-04-16 01:13 | 59.56045 | -139.76093 | 1445 ft | 178 kts | 136° |
| 2026-04-16 01:13 | 59.55181 | -139.74395 | 1208 ft | 171 kts | 136° |
| 2026-04-16 01:14 | 59.54399 | -139.72850 | 1001 ft | 149 kts | 136° |
| 2026-04-16 01:14 | 59.53712 | -139.71496 | 800 ft | 131 kts | 137° |
| 2026-04-16 01:14 | 59.53099 | -139.70268 | 640 ft | 121 kts | 137° |
| 2026-04-16 01:14 | 59.52493 | -139.69098 | 502 ft | 124 kts | 136° |
| 2026-04-16 01:15 | 59.51876 | -139.67904 | 326 ft | 124 kts | 137° |
| 2026-04-16 01:15 | 59.51271 | -139.66716 | 105 ft | 122 kts | 136° |
| 2026-04-16 01:15 | 59.50710 | -139.65623 | 47 ft | 96 kts | 135° |
| 2026-04-16 01:15 | 59.50343 | -139.64903 | 44 ft | 52 kts | 135° |
| 2026-04-16 01:16 | 59.50209 | -139.64646 | 46 ft | 14 kts | 146° |
| 2026-04-16 01:16 | 59.50182 | -139.64571 | 46 ft | 6 kts | 4° |
| 2026-04-16 01:16 | 59.50217 | -139.64641 | 46 ft | 9 kts | 312° |
| 2026-04-16 01:16 | 59.50274 | -139.64761 | 43 ft | 14 kts | 314° |
| 2026-04-16 01:17 | 59.50360 | -139.64931 | 40 ft | 23 kts | 315° |
| 2026-04-16 01:17 | 59.50480 | -139.65169 | 44 ft | 26 kts | 315° |
| 2026-04-16 01:17 | 59.50604 | -139.65416 | 44 ft | 24 kts | 315° |
| 2026-04-16 01:17 | 59.50720 | -139.65645 | 44 ft | 23 kts | 315° |
| 2026-04-16 01:18 | 59.50829 | -139.65862 | 43 ft | 21 kts | 315° |
| 2026-04-16 01:18 | 59.50846 | -139.66087 | 45 ft | 19 kts | 236° |
| 2026-04-16 01:18 | 59.50832 | -139.66282 | 45 ft | 13 kts | 308° |
| 2026-04-16 01:18 | 59.50877 | -139.66430 | 48 ft | 13 kts | 276° |
| 2026-04-16 01:19 | 59.50835 | -139.66542 | 48 ft | 10 kts | 223° |
| 2026-04-16 01:19 | 59.50783 | -139.66639 | 46 ft | 10 kts | 224° |
| 2026-04-16 01:19 | 59.50762 | -139.66686 | 48 ft | 2 kts | 253° |
| 2026-04-16 01:19 | 59.50776 | -139.66705 | 48 ft | 3 kts | 332° |
| 2026-04-16 01:20 | 59.50792 | -139.66722 | 48 ft | 3 kts | 331° |
| 2026-04-16 01:20 | 59.50798 | -139.66729 | 48 ft | 0 kts | 331° |